Terminal Aerodrome Forecast
Issued by NWS

Home | Current Version | Previous Version | Text Only | Print | Product List | Glossary On
Versions: 1 2 3 4 5 6 7 8 9 10 11 12
000
FTUS45 KMSO 031728
TAFSMN
TAF
KSMN 031728Z 0318/0418 35009KT P6SM VCSH BKN120
     FM040100 VRB06KT P6SM OVC080
     FM041200 01011KT P6SM -SHRA SCT040 OVC060
      AMD LTD TO CLD VIS AND WIND=

USA.gov is the U.S. government's official web portal to all federal, state and local government web resources and services.